HBNEW EDDS-LSZB
Flight info
| Callsign | HBNEW |
|---|---|
| Flight time | 0h 43m |
| Altitude | 23000 |
| Route | ROTWE7H/07 ROTWE Y126 TUBLO N850 NATOR DCT TRA Z669 ROTOS ROTOS3M |
| Aircraft | SF50/L-SDGRWY/L |
Departure
| Time | 2026-05-01 13:12 |
|---|---|
| Airport | Stuttgart Airport (EDDS) |
Arrival
| Time | 2026-05-01 13:55 |
|---|---|
| Airport | Bern Airport (LSZB) |
| Time | Latitude | Longitude | Altitude | Speed | Heading |
|---|---|---|---|---|---|
| 2026-05-01 13:07 | 48.68290 | 9.20144 | 1304 ft | 0 kts | 173° |
| 2026-05-01 13:10 | 48.68301 | 9.20131 | 1277 ft | 10 kts | 358° |
| 2026-05-01 13:11 | 48.68434 | 9.20091 | 1280 ft | 29 kts | 343° |
| 2026-05-01 13:11 | 48.68599 | 9.20151 | 1277 ft | 31 kts | 72° |
| 2026-05-01 13:11 | 48.68718 | 9.20779 | 1286 ft | 91 kts | 73° |
| 2026-05-01 13:11 | 48.68907 | 9.21842 | 1516 ft | 120 kts | 76° |
| 2026-05-01 13:12 | 48.69135 | 9.23252 | 1850 ft | 152 kts | 72° |
| 2026-05-01 13:12 | 48.69487 | 9.24758 | 2672 ft | 154 kts | 75° |
| 2026-05-01 13:12 | 48.69781 | 9.26360 | 3458 ft | 161 kts | 77° |
| 2026-05-01 13:12 | 48.70063 | 9.28002 | 4270 ft | 165 kts | 77° |
| 2026-05-01 13:13 | 48.70387 | 9.29678 | 4910 ft | 169 kts | 78° |
| 2026-05-01 13:13 | 48.70766 | 9.31583 | 5019 ft | 211 kts | 77° |
| 2026-05-01 13:13 | 48.71171 | 9.33646 | 6079 ft | 192 kts | 78° |
| 2026-05-01 13:13 | 48.71220 | 9.35484 | 6995 ft | 170 kts | 105° |
| 2026-05-01 13:14 | 48.70741 | 9.37118 | 7572 ft | 171 kts | 127° |
| 2026-05-01 13:14 | 48.69863 | 9.38316 | 8220 ft | 171 kts | 147° |
| 2026-05-01 13:14 | 48.68756 | 9.38942 | 8773 ft | 175 kts | 167° |
| 2026-05-01 13:14 | 48.67526 | 9.38935 | 9348 ft | 180 kts | 187° |
| 2026-05-01 13:15 | 48.66357 | 9.38239 | 9877 ft | 185 kts | 203° |
| 2026-05-01 13:15 | 48.65214 | 9.37300 | 10359 ft | 190 kts | 210° |
| 2026-05-01 13:15 | 48.64294 | 9.35830 | 10867 ft | 197 kts | 232° |
| 2026-05-01 13:15 | 48.63722 | 9.33925 | 11327 ft | 202 kts | 248° |
| 2026-05-01 13:16 | 48.63265 | 9.31904 | 11804 ft | 204 kts | 247° |
| 2026-05-01 13:16 | 48.62767 | 9.29886 | 12323 ft | 206 kts | 246° |
| 2026-05-01 13:16 | 48.62278 | 9.27838 | 12857 ft | 208 kts | 248° |
| 2026-05-01 13:17 | 48.61045 | 9.21470 | 14310 ft | 215 kts | 253° |
| 2026-05-01 13:17 | 48.60652 | 9.19273 | 14738 ft | 217 kts | 253° |
| 2026-05-01 13:18 | 48.59860 | 9.14837 | 15602 ft | 220 kts | 254° |
| 2026-05-01 13:18 | 48.59461 | 9.12598 | 16031 ft | 221 kts | 253° |
| 2026-05-01 13:18 | 48.59060 | 9.10350 | 16481 ft | 222 kts | 253° |
| 2026-05-01 13:18 | 48.58656 | 9.08090 | 16914 ft | 224 kts | 253° |
| 2026-05-01 13:19 | 48.58252 | 9.05836 | 17343 ft | 225 kts | 253° |
| 2026-05-01 13:19 | 48.57842 | 9.03546 | 17789 ft | 227 kts | 253° |
| 2026-05-01 13:19 | 48.57013 | 8.98928 | 18671 ft | 229 kts | 253° |
| 2026-05-01 13:20 | 48.56595 | 8.96597 | 19050 ft | 231 kts | 253° |
| 2026-05-01 13:20 | 48.56180 | 8.94277 | 19450 ft | 232 kts | 253° |
| 2026-05-01 13:20 | 48.55754 | 8.91918 | 19826 ft | 234 kts | 254° |
| 2026-05-01 13:21 | 48.54901 | 8.87186 | 20622 ft | 236 kts | 255° |
| 2026-05-01 13:21 | 48.54474 | 8.84804 | 21029 ft | 237 kts | 254° |
| 2026-05-01 13:21 | 48.54035 | 8.82397 | 21436 ft | 238 kts | 255° |
| 2026-05-01 13:21 | 48.53592 | 8.79964 | 21876 ft | 237 kts | 255° |
| 2026-05-01 13:22 | 48.53161 | 8.77568 | 22306 ft | 236 kts | 255° |
| 2026-05-01 13:22 | 48.52737 | 8.75235 | 22718 ft | 235 kts | 255° |
| 2026-05-01 13:22 | 48.52296 | 8.72826 | 23140 ft | 235 kts | 255° |
| 2026-05-01 13:22 | 48.51853 | 8.70411 | 23282 ft | 247 kts | 255° |
| 2026-05-01 13:23 | 48.51388 | 8.67841 | 23295 ft | 261 kts | 256° |
| 2026-05-01 13:23 | 48.50900 | 8.65154 | 23292 ft | 274 kts | 255° |
| 2026-05-01 13:23 | 48.50389 | 8.62331 | 23290 ft | 284 kts | 255° |
| 2026-05-01 13:23 | 48.49860 | 8.59415 | 23293 ft | 292 kts | 255° |
| 2026-05-01 13:24 | 48.49321 | 8.56474 | 23296 ft | 297 kts | 255° |
| 2026-05-01 13:24 | 48.48770 | 8.53459 | 23292 ft | 302 kts | 255° |
| 2026-05-01 13:24 | 48.48209 | 8.50385 | 23290 ft | 306 kts | 255° |
| 2026-05-01 13:25 | 48.46621 | 8.44396 | 23274 ft | 313 kts | 233° |
| 2026-05-01 13:25 | 48.45079 | 8.42055 | 23273 ft | 316 kts | 216° |
| 2026-05-01 13:25 | 48.43158 | 8.40503 | 23270 ft | 318 kts | 199° |
| 2026-05-01 13:25 | 48.41014 | 8.39713 | 23274 ft | 318 kts | 190° |
| 2026-05-01 13:26 | 48.38838 | 8.39043 | 23274 ft | 320 kts | 190° |
| 2026-05-01 13:26 | 48.36651 | 8.38347 | 23277 ft | 322 kts | 191° |
| 2026-05-01 13:26 | 48.34499 | 8.37654 | 23278 ft | 324 kts | 191° |
| 2026-05-01 13:26 | 48.32288 | 8.36955 | 23282 ft | 325 kts | 190° |
| 2026-05-01 13:27 | 48.30061 | 8.36255 | 23288 ft | 327 kts | 190° |
| 2026-05-01 13:27 | 48.27819 | 8.35546 | 23284 ft | 329 kts | 191° |
| 2026-05-01 13:27 | 48.23508 | 8.34183 | 23286 ft | 332 kts | 191° |
| 2026-05-01 13:28 | 48.18970 | 8.32758 | 23289 ft | 334 kts | 191° |
| 2026-05-01 13:28 | 48.16674 | 8.32376 | 23275 ft | 333 kts | 178° |
| 2026-05-01 13:29 | 48.12095 | 8.33343 | 23275 ft | 332 kts | 169° |
| 2026-05-01 13:29 | 48.07515 | 8.34434 | 23279 ft | 333 kts | 169° |
| 2026-05-01 13:30 | 47.98508 | 8.36615 | 23281 ft | 333 kts | 169° |
| 2026-05-01 13:31 | 47.93954 | 8.37712 | 23286 ft | 333 kts | 169° |
| 2026-05-01 13:31 | 47.87091 | 8.39363 | 23289 ft | 334 kts | 169° |
| 2026-05-01 13:32 | 47.82524 | 8.40461 | 23287 ft | 334 kts | 169° |
| 2026-05-01 13:33 | 47.75621 | 8.42112 | 23292 ft | 335 kts | 169° |
| 2026-05-01 13:33 | 47.70989 | 8.42532 | 23285 ft | 337 kts | 187° |
| 2026-05-01 13:34 | 47.66649 | 8.40057 | 23285 ft | 338 kts | 213° |
| 2026-05-01 13:34 | 47.63197 | 8.35391 | 23291 ft | 338 kts | 224° |
| 2026-05-01 13:35 | 47.59830 | 8.30571 | 23290 ft | 338 kts | 224° |
| 2026-05-01 13:35 | 47.58686 | 8.28930 | 23291 ft | 338 kts | 224° |
| 2026-05-01 13:35 | 47.55337 | 8.24108 | 23286 ft | 338 kts | 224° |
| 2026-05-01 13:36 | 47.53650 | 8.21693 | 23289 ft | 333 kts | 224° |
| 2026-05-01 13:36 | 47.51992 | 8.19328 | 23282 ft | 327 kts | 224° |
| 2026-05-01 13:36 | 47.48743 | 8.14677 | 23282 ft | 323 kts | 224° |
| 2026-05-01 13:37 | 47.47186 | 8.12453 | 23288 ft | 323 kts | 224° |
| 2026-05-01 13:37 | 47.45522 | 8.10083 | 23280 ft | 322 kts | 224° |
| 2026-05-01 13:37 | 47.43906 | 8.07783 | 23276 ft | 322 kts | 224° |
| 2026-05-01 13:37 | 47.42296 | 8.05487 | 23278 ft | 321 kts | 224° |
| 2026-05-01 13:38 | 47.39090 | 8.00930 | 23271 ft | 322 kts | 224° |
| 2026-05-01 13:38 | 47.37477 | 7.98640 | 23269 ft | 322 kts | 224° |
| 2026-05-01 13:38 | 47.35862 | 7.96347 | 23273 ft | 322 kts | 224° |
| 2026-05-01 13:39 | 47.34247 | 7.94059 | 23266 ft | 322 kts | 224° |
| 2026-05-01 13:39 | 47.32646 | 7.91794 | 23266 ft | 321 kts | 224° |
| 2026-05-01 13:39 | 47.31035 | 7.89510 | 23267 ft | 321 kts | 224° |
| 2026-05-01 13:39 | 47.29424 | 7.87229 | 23268 ft | 322 kts | 224° |
| 2026-05-01 13:40 | 47.27806 | 7.84945 | 23263 ft | 322 kts | 224° |
| 2026-05-01 13:40 | 47.26205 | 7.82681 | 23261 ft | 322 kts | 224° |
| 2026-05-01 13:40 | 47.24586 | 7.80401 | 23262 ft | 322 kts | 224° |
| 2026-05-01 13:40 | 47.22969 | 7.78123 | 23262 ft | 321 kts | 224° |
| 2026-05-01 13:41 | 47.21373 | 7.75874 | 23261 ft | 321 kts | 224° |
| 2026-05-01 13:41 | 47.19772 | 7.73618 | 23262 ft | 320 kts | 224° |
| 2026-05-01 13:41 | 47.18391 | 7.71064 | 23262 ft | 320 kts | 239° |
| 2026-05-01 13:41 | 47.17279 | 7.68239 | 23263 ft | 319 kts | 240° |
| 2026-05-01 13:42 | 47.16150 | 7.65427 | 23267 ft | 319 kts | 239° |
| 2026-05-01 13:42 | 47.15012 | 7.62631 | 23265 ft | 319 kts | 239° |
| 2026-05-01 13:42 | 47.13890 | 7.59859 | 22916 ft | 318 kts | 239° |
| 2026-05-01 13:42 | 47.12805 | 7.57060 | 22377 ft | 313 kts | 243° |
| 2026-05-01 13:43 | 47.12115 | 7.54044 | 21821 ft | 311 kts | 257° |
| 2026-05-01 13:43 | 47.11649 | 7.50951 | 21289 ft | 310 kts | 257° |
| 2026-05-01 13:43 | 47.11166 | 7.47896 | 20751 ft | 311 kts | 256° |
| 2026-05-01 13:43 | 47.10669 | 7.44806 | 20206 ft | 310 kts | 256° |
| 2026-05-01 13:44 | 47.10185 | 7.41764 | 19669 ft | 299 kts | 256° |
| 2026-05-01 13:44 | 47.09722 | 7.38847 | 19153 ft | 287 kts | 255° |
| 2026-05-01 13:44 | 47.08940 | 7.36302 | 18664 ft | 278 kts | 232° |
| 2026-05-01 13:44 | 47.07481 | 7.34528 | 18155 ft | 271 kts | 205° |
| 2026-05-01 13:45 | 47.05666 | 7.33967 | 17688 ft | 267 kts | 178° |
| 2026-05-01 13:45 | 47.03881 | 7.34598 | 17228 ft | 265 kts | 154° |
| 2026-05-01 13:45 | 47.02413 | 7.36174 | 16777 ft | 264 kts | 137° |
| 2026-05-01 13:45 | 47.01281 | 7.38273 | 16328 ft | 263 kts | 122° |
| 2026-05-01 13:46 | 47.00543 | 7.40715 | 15866 ft | 262 kts | 109° |
| 2026-05-01 13:46 | 46.99996 | 7.43245 | 15411 ft | 260 kts | 109° |
| 2026-05-01 13:46 | 46.99414 | 7.45739 | 14959 ft | 257 kts | 110° |
| 2026-05-01 13:46 | 46.98828 | 7.48183 | 14512 ft | 256 kts | 110° |
| 2026-05-01 13:47 | 46.98249 | 7.50637 | 14063 ft | 254 kts | 110° |
| 2026-05-01 13:47 | 46.97678 | 7.53071 | 13592 ft | 252 kts | 110° |
| 2026-05-01 13:47 | 46.97115 | 7.55487 | 13152 ft | 250 kts | 110° |
| 2026-05-01 13:47 | 46.96553 | 7.57870 | 12718 ft | 249 kts | 110° |
| 2026-05-01 13:48 | 46.95892 | 7.60196 | 12275 ft | 246 kts | 121° |
| 2026-05-01 13:48 | 46.94885 | 7.62203 | 11854 ft | 244 kts | 129° |
| 2026-05-01 13:48 | 46.93852 | 7.64174 | 11331 ft | 245 kts | 128° |
| 2026-05-01 13:48 | 46.92856 | 7.66135 | 10754 ft | 241 kts | 128° |
| 2026-05-01 13:49 | 46.91857 | 7.68092 | 10311 ft | 238 kts | 128° |
| 2026-05-01 13:49 | 46.90808 | 7.69961 | 9878 ft | 237 kts | 137° |
| 2026-05-01 13:49 | 46.89544 | 7.71342 | 9471 ft | 217 kts | 147° |
| 2026-05-01 13:49 | 46.88378 | 7.72517 | 9137 ft | 195 kts | 145° |
| 2026-05-01 13:50 | 46.87311 | 7.73651 | 8828 ft | 190 kts | 144° |
| 2026-05-01 13:50 | 46.86107 | 7.74797 | 8451 ft | 227 kts | 155° |
| 2026-05-01 13:50 | 46.84403 | 7.75327 | 8025 ft | 275 kts | 179° |
| 2026-05-01 13:50 | 46.82428 | 7.74680 | 7498 ft | 309 kts | 203° |
| 2026-05-01 13:51 | 46.80594 | 7.72924 | 6947 ft | 328 kts | 223° |
| 2026-05-01 13:51 | 46.79400 | 7.70394 | 6425 ft | 293 kts | 248° |
| 2026-05-01 13:51 | 46.79079 | 7.67529 | 5938 ft | 284 kts | 274° |
| 2026-05-01 13:51 | 46.79577 | 7.64800 | 5486 ft | 269 kts | 295° |
| 2026-05-01 13:52 | 46.80551 | 7.62745 | 5068 ft | 227 kts | 314° |
| 2026-05-01 13:52 | 46.81696 | 7.61352 | 4708 ft | 203 kts | 325° |
| 2026-05-01 13:52 | 46.82798 | 7.60184 | 4367 ft | 186 kts | 323° |
| 2026-05-01 13:52 | 46.83759 | 7.59041 | 4101 ft | 174 kts | 320° |
| 2026-05-01 13:53 | 46.84662 | 7.57891 | 3790 ft | 176 kts | 321° |
| 2026-05-01 13:53 | 46.86450 | 7.55809 | 3178 ft | 148 kts | 320° |
| 2026-05-01 13:53 | 46.87220 | 7.54850 | 2912 ft | 143 kts | 319° |
| 2026-05-01 13:54 | 46.87978 | 7.53923 | 2650 ft | 138 kts | 320° |
| 2026-05-01 13:54 | 46.88668 | 7.53081 | 2423 ft | 122 kts | 320° |
| 2026-05-01 13:54 | 46.89273 | 7.52338 | 2219 ft | 107 kts | 319° |
| 2026-05-01 13:54 | 46.89820 | 7.51637 | 2026 ft | 102 kts | 322° |
| 2026-05-01 13:55 | 46.90364 | 7.50990 | 1835 ft | 101 kts | 322° |
| 2026-05-01 13:55 | 46.90835 | 7.50415 | 1679 ft | 77 kts | 323° |
| 2026-05-01 13:55 | 46.91067 | 7.50155 | 1677 ft | 13 kts | 57° |
| 2026-05-01 13:55 | 46.91093 | 7.50261 | 1676 ft | 10 kts | 138° |
| 2026-05-01 13:56 | 46.91030 | 7.50334 | 1676 ft | 11 kts | 134° |
| 2026-05-01 13:56 | 46.90996 | 7.50430 | 1679 ft | 10 kts | 117° |
| 2026-05-01 13:56 | 46.91000 | 7.50467 | 1676 ft | 0 kts | 56° |
| 2026-05-01 13:56 | 46.91001 | 7.50470 | 1676 ft | 0 kts | 62° |